Flight Track Log - Related Links

Times and Time Zones

All times are in EDT time to prevent confusion due to time zone crossing. See the SWA3313 flight status page for this flight to view local times or setup timezone preferences in your user account.

Time Position Orientation Groundspeed Altitude Reporting Facility
EDT Latitude Longitude Course Direction KTS MPH feet Rate Location/Type
Fri 07:59:43 PM 39.1833 -76.7000 270° West 158 182 1,600  Level Potomac TRACON
Fri 08:00:43 PM 39.1833 -76.7833 270° West 212 244 3,100 2,200 Climbing Potomac TRACON
Fri 08:01:43 PM 39.2000 -76.8667 284° West 259 298 6,000 3,300 Climbing Potomac TRACON
Fri 08:02:43 PM 39.2167 -76.9667 282° West 277 319 9,700 3,050 Climbing Potomac TRACON
Fri 08:03:43 PM 39.1667 -77.0500 232° Southwest 319 367 12,100 2,900 Climbing Potomac TRACON
Fri 08:04:43 PM 39.1000 -77.1167 218° Southwest 341 392 15,500 3,150 Climbing Potomac TRACON
Fri 08:05:43 PM 39.0167 -77.1833 212° Southwest 362 417 18,400 2,254 Climbing Potomac TRACON
Fri 08:08:08 PM 38.8061 -77.3925 218° Southwest 403 464 23,200 1,980 Climbing Washington Center
Fri 08:09:06 PM 38.7258 -77.4703 217° Southwest 403 464 25,100 1,932 Climbing Washington Center
Fri 08:10:06 PM 38.6325 -77.5636 218° Southwest 416 479 27,000 1,240 Climbing Washington Center
Fri 08:11:07 PM 38.5472 -77.6728 225° Southwest 430 495 27,600 1,230 Climbing Washington Center
Fri 08:12:08 PM 38.4597 -77.7819 224° Southwest 430 495 29,500 1,210 Climbing Washington Center
Fri 08:13:06 PM 38.3703 -77.8931 224° Southwest 443 510 30,000 814 Climbing Washington Center
Fri 08:14:06 PM 38.2803 -78.0067 225° Southwest 449 517 31,100 1,438 Climbing Washington Center
Fri 08:15:07 PM 38.1906 -78.1147 223° Southwest 449 517 32,900 1,426 Climbing Washington Center
Fri 08:16:08 PM 38.0983 -78.2303 225° Southwest 449 517 34,000 545 Climbing Washington Center
Fri 08:17:08 PM 37.9956 -78.3481 222° Southwest 454 522 34,000 300 Level Washington Center
Fri 08:18:08 PM 37.8975 -78.4469 219° Southwest 454 522 34,600 1,169 Climbing Washington Center
Fri 08:19:06 PM 37.7969 -78.5458 218° Southwest 460 529 36,300 1,613 Climbing Washington Center
Fri 08:20:07 PM 37.7006 -78.6444 219° Southwest 460 529 37,800 1,426 Climbing Washington Center
Fri 08:21:08 PM 37.6128 -78.7300 218° Southwest 455 524 39,200 934 Climbing Washington Center
Fri 08:22:09 PM 37.5164 -78.8281 219° Southwest 455 524 39,700 407 Climbing Washington Center
Fri 08:23:06 PM 37.4158 -78.9258 218° Southwest 455 524 40,000 153 Climbing Washington Center
Fri 08:24:07 PM 37.3150 -79.0233 218° Southwest 455 524 40,000  Level Washington Center
Fri 08:25:08 PM 37.2139 -79.1256 219° Southwest 460 529 40,000 -605 Level Washington Center
Fri 08:26:06 PM 37.1022 -79.2350 218° Southwest 460 529 38,800 -1,462 Descending Washington Center
Fri 08:27:07 PM 37.0053 -79.3319 219° Southwest 460 529 37,100 -2,016 Descending Washington Center
Fri 08:28:08 PM 36.9083 -79.4286 219° Southwest 455 524 34,700 -2,067 Descending Washington Center
Fri 08:29:06 PM 36.8156 -79.5225 219° Southwest 449 517 33,000 -1,373 Descending Washington Center
Fri 08:30:06 PM 36.7272 -79.6061 217° Southwest 449 517 32,000 -1,209 Descending Washington Center
Fri 08:31:20 PM 36.6100 -79.7197 218° Southwest 430 495 30,300 -2,284 Descending Atlanta Center
Fri 08:32:20 PM 36.5050 -79.8211 218° Southwest 430 495 26,900 -3,000 Descending Atlanta Center
Fri 08:33:20 PM 36.4142 -79.9083 218° Southwest 430 495 24,300 -2,400 Descending Atlanta Center
Fri 08:34:20 PM 36.3214 -79.9981 218° Southwest 430 495 22,100 -1,200 Descending Atlanta Center
Fri 08:35:20 PM 36.2281 -80.0775 214° Southwest 424 488 21,900 -850 Descending Atlanta Center
Fri 08:36:20 PM 36.1489 -80.1458 215° Southwest 409 471 20,400 -1,850 Descending Atlanta Center
Fri 08:37:20 PM 36.0614 -80.2219 215° Southwest 399 459 18,200 -2,371 Descending Atlanta Center
Fri 08:38:24 PM 35.9600 -80.3114 216° Southwest 377 434 15,500 -2,495 Descending Atlanta Center
Fri 08:39:01 PM 35.9092 -80.3572 216° Southwest 373 429 14,000 -2,143 Descending Atlanta Center
Fri 08:39:20 PM 35.8828 -80.3764 210° Southwest 388 447 13,500 -982 Descending Atlanta Center
Fri 08:39:56 PM 35.8358 -80.4194 217° Southwest 345 397 13,100 -500 Descending Atlanta Center
Fri 08:40:20 PM 35.8053 -80.4386 207° Southwest 355 409 13,000 -590 Descending Atlanta Center
Fri 08:40:57 PM 35.7647 -80.4789 219° Southwest 291 335 12,500 -800 Descending Atlanta Center
Fri 08:41:20 PM 35.7422 -80.4925 206° Southwest 326 375 12,200 -1,091 Descending Atlanta Center
Fri 08:41:52 PM 35.7036 -80.5328 220° Southwest 289 333 11,500 -1,200 Descending Atlanta Center
Fri 08:42:20 PM 35.6897 -80.5589 237° Southwest 292 336 11,000 -1,667 Descending Atlanta Center
Fri 08:42:46 PM 35.6725 -80.6108 248° West 282 325 10,000 -1,600 Descending Atlanta Center
Fri 08:43:20 PM 35.6525 -80.6472 236° Southwest 282 325 9,400 -1,254 Descending Atlanta Center
Fri 08:43:53 PM 35.6353 -80.7017 249° West 278 320 8,600 -1,200 Descending Atlanta Center
Fri 08:44:20 PM 35.6214 -80.7303 239° Southwest 282 325 8,200 -1,527 Descending Atlanta Center
Fri 08:44:48 PM 35.6058 -80.7719 245° Southwest 249 287 7,200 -2,000 Descending Atlanta Center
Fri 08:45:20 PM 35.5903 -80.8056 240° Southwest 261 300 6,200 -1,180 Descending Atlanta Center
Fri 08:45:49 PM 35.5767 -80.8469 248° West 243 280 6,000 -200 Descending Atlanta Center
Fri 08:46:20 PM 35.5608 -80.8833 242° Southwest 247 284 6,000 -393 Level Atlanta Center
Fri 08:46:50 PM 35.5533 -80.9117 252° West 177 204 5,600 -900 Descending Atlanta Center
Fri 08:47:20 PM 35.5414 -80.9378 241° Southwest 208 239 5,100 -1,082 Descending Atlanta Center
Fri 08:47:51 PM 35.5189 -80.9539 210° Southwest 169 194 4,500 -1,000 Descending Atlanta Center
Fri 08:48:20 PM 35.4983 -80.9650 204° Southwest 175 201 4,100 -492 Descending Atlanta Center
Fri 08:48:52 PM 35.4756 -80.9758 201° Southwest 167 192 4,000 -61 Descending Atlanta Center
Fri 08:49:59 PM 35.4256 -80.9728 177° South 163 188 4,000 -179 Level Atlanta Center
Fri 08:51:06 PM 35.3794 -80.9694 177° South 151 174 3,600 -516 Descending Atlanta Center
Fri 08:52:07 PM 35.3394 -80.9606 170° South 148 170 2,900 -639 Descending Atlanta Center
Fri 08:53:08 PM 35.3039 -80.9467 162° South 146 168 2,300 -694 Descending Atlanta Center
Fri 08:54:08 PM 35.2619 -80.9433 176° South 134 154 1,500 -800 Descending Atlanta Center
Fri 08:56:00 PM 35.2137 -80.9491 173° South  Level Estimated
Fri 09:03:00 PM 35.2137 -80.9491 173° South  Level Estimated

Login

Don't have an account? Register now (free) for customized features, flight alerts, and more!